Shawbridge, Canada
Current Conditions -  °F | °C
As of 12:00 AM on Tuesday 21 Oct 2014 (Local Time) from CYMX Reporting Station
Rain Showers Rain Showers  
Wind Chill: 38°   Ceiling: 3200
Heat Index: 41°   Visibility: 25mi
Dew Point: 34°   Wind: 5mph
Humidity: 76%   Direction: 40°NE
Pressure: 29.95"   Gusts: NA
Location:  45.87°N, 74.08°W
Report Text: CYMX 210400Z 04004KT 350V070 25SM -SHRA OVC032 05/01 A2995 RMK SC8 SLP145
Loading
Personal Weather Stations






























Interactive Weather Map
Tropical Storm Tracking
New forecast layout! Learn more

10-Day Weather Forecast

Advertisements
Track Severe Weather on mobile